Terminal Aerodrome Forecast
Issued by NWS

Home | Current Version | Previous Version | Text Only | Print | Product List | Glossary On
Versions: 1 2 3 4 5 6 7 8 9 10 11 12 13 14 15
637
FTUS44 KLIX 201720
TAFMSY
TAF
KMSY 201720Z 2018/2118 01005KT P6SM FEW035
     FM202200 12004KT P6SM SCT050
     FM210100 18006KT P6SM FEW040
     FM210600 25007KT P6SM FEW020
     FM211600 00000KT P6SM SCT035=

USA.gov is the U.S. government's official web portal to all federal, state and local government web resources and services.